sensor_id;sensor_type;location;lat;lon;timestamp;P1;durP1;ratioP1;P2;durP2;ratioP2
81815;SDS011;71249;52.084;5.304;2024-03-02T00:00:39;4.41;;;1.5;;
81815;SDS011;71249;52.084;5.304;2024-03-02T00:02:18;3.1;;;1.3;;
81815;SDS011;71249;52.084;5.304;2024-03-02T00:03:54;2.5;;;1.5;;
81815;SDS011;71249;52.084;5.304;2024-03-02T00:07:06;3.5;;;1.7;;
81815;SDS011;71249;52.084;5.304;2024-03-02T00:08:43;1.6;;;1.3;;
81815;SDS011;71249;52.084;5.304;2024-03-02T00:10:19;2.8;;;1.2;;
81815;SDS011;71249;52.084;5.304;2024-03-02T00:11:58;4.0;;;1.5;;
81815;SDS011;71249;52.084;5.304;2024-03-02T00:15:19;3.6;;;1.4;;
81815;SDS011;71249;52.084;5.304;2024-03-02T00:17:17;3.5;;;1.4;;
81815;SDS011;71249;52.084;5.304;2024-03-02T00:19:01;2.4;;;1.4;;
81815;SDS011;71249;52.084;5.304;2024-03-02T00:20:38;3.1;;;1.4;;
81815;SDS011;71249;52.084;5.304;2024-03-02T00:23:52;3.3;;;1.6;;
81815;SDS011;71249;52.084;5.304;2024-03-02T00:25:31;2.4;;;1.6;;
81815;SDS011;71249;52.084;5.304;2024-03-02T00:27:14;4.1;;;1.5;;
81815;SDS011;71249;52.084;5.304;2024-03-02T00:28:51;4.41;;;1.2;;
81815;SDS011;71249;52.084;5.304;2024-03-02T00:32:27;2.7;;;1.5;;
81815;SDS011;71249;52.084;5.304;2024-03-02T00:34:11;2.7;;;1.3;;
81815;SDS011;71249;52.084;5.304;2024-03-02T00:35:49;4.3;;;1.5;;
81815;SDS011;71249;52.084;5.304;2024-03-02T00:37:26;3.3;;;1.3;;
81815;SDS011;71249;52.084;5.304;2024-03-02T00:40:38;3.4;;;1.11;;
81815;SDS011;71249;52.084;5.304;2024-03-02T00:42:15;1.0;;;0.9;;
81815;SDS011;71249;52.084;5.304;2024-03-02T00:43:56;2.0;;;0.6;;
81815;SDS011;71249;52.084;5.304;2024-03-02T00:45:34;2.4;;;0.7;;
81815;SDS011;71249;52.084;5.304;2024-03-02T00:48:48;0.8;;;0.4;;
81815;SDS011;71249;52.084;5.304;2024-03-02T00:50:29;1.11;;;0.5;;
81815;SDS011;71249;52.084;5.304;2024-03-02T00:52:05;1.11;;;0.4;;
81815;SDS011;71249;52.084;5.304;2024-03-02T00:53:42;1.4;;;0.3;;
81815;SDS011;71249;52.084;5.304;2024-03-02T00:56:59;1.2;;;0.3;;
81815;SDS011;71249;52.084;5.304;2024-03-02T00:58:36;0.8;;;0.3;;
81815;SDS011;71249;52.084;5.304;2024-03-02T01:00:12;1.3;;;0.4;;
81815;SDS011;71249;52.084;5.304;2024-03-02T01:03:25;1.4;;;0.6;;
81815;SDS011;71249;52.084;5.304;2024-03-02T01:05:01;0.4;;;0.3;;
81815;SDS011;71249;52.084;5.304;2024-03-02T01:06:37;0.5;;;0.4;;
81815;SDS011;71249;52.084;5.304;2024-03-02T01:09:49;0.9;;;0.4;;
81815;SDS011;71249;52.084;5.304;2024-03-02T01:11:26;0.8;;;0.4;;
81815;SDS011;71249;52.084;5.304;2024-03-02T01:13:02;1.5;;;0.3;;
81815;SDS011;71249;52.084;5.304;2024-03-02T01:14:38;1.2;;;0.3;;
81815;SDS011;71249;52.084;5.304;2024-03-02T01:17:50;0.5;;;0.5;;
81815;SDS011;71249;52.084;5.304;2024-03-02T01:19:26;0.6;;;0.4;;
81815;SDS011;71249;52.084;5.304;2024-03-02T01:21:02;0.7;;;0.3;;
81815;SDS011;71249;52.084;5.304;2024-03-02T01:24:15;0.6;;;0.4;;
81815;SDS011;71249;52.084;5.304;2024-03-02T01:25:52;0.7;;;0.4;;
81815;SDS011;71249;52.084;5.304;2024-03-02T01:27:29;0.6;;;0.5;;
81815;SDS011;71249;52.084;5.304;2024-03-02T01:30:41;1.5;;;0.4;;
81815;SDS011;71249;52.084;5.304;2024-03-02T01:32:17;0.3;;;0.3;;
81815;SDS011;71249;52.084;5.304;2024-03-02T01:33:53;1.2;;;0.4;;
81815;SDS011;71249;52.084;5.304;2024-03-02T01:37:05;1.11;;;0.4;;
81815;SDS011;71249;52.084;5.304;2024-03-02T01:38:41;2.6;;;0.3;;
81815;SDS011;71249;52.084;5.304;2024-03-02T01:40:18;0.9;;;0.4;;
81815;SDS011;71249;52.084;5.304;2024-03-02T01:41:54;0.6;;;0.5;;
81815;SDS011;71249;52.084;5.304;2024-03-02T01:45:06;0.8;;;0.4;;
81815;SDS011;71249;52.084;5.304;2024-03-02T01:46:44;0.5;;;0.4;;
81815;SDS011;71249;52.084;5.304;2024-03-02T01:48:20;1.2;;;0.4;;
81815;SDS011;71249;52.084;5.304;2024-03-02T01:51:32;0.3;;;0.3;;
81815;SDS011;71249;52.084;5.304;2024-03-02T01:53:08;0.7;;;0.3;;
81815;SDS011;71249;52.084;5.304;2024-03-02T01:54:44;0.8;;;0.5;;
81815;SDS011;71249;52.084;5.304;2024-03-02T01:57:57;1.11;;;0.5;;
81815;SDS011;71249;52.084;5.304;2024-03-02T01:59:33;0.9;;;0.5;;
81815;SDS011;71249;52.084;5.304;2024-03-02T02:01:09;1.2;;;0.3;;
81815;SDS011;71249;52.084;5.304;2024-03-02T02:02:45;1.11;;;0.4;;
81815;SDS011;71249;52.084;5.304;2024-03-02T02:05:57;0.5;;;0.4;;
81815;SDS011;71249;52.084;5.304;2024-03-02T02:07:33;0.7;;;0.3;;
81815;SDS011;71249;52.084;5.304;2024-03-02T02:09:10;0.6;;;0.6;;
81815;SDS011;71249;52.084;5.304;2024-03-02T02:12:23;0.3;;;0.3;;
81815;SDS011;71249;52.084;5.304;2024-03-02T02:14:00;0.4;;;0.4;;
81815;SDS011;71249;52.084;5.304;2024-03-02T02:15:36;0.7;;;0.5;;
81815;SDS011;71249;52.084;5.304;2024-03-02T02:18:48;0.4;;;0.4;;
81815;SDS011;71249;52.084;5.304;2024-03-02T02:20:24;1.2;;;0.5;;
81815;SDS011;71249;52.084;5.304;2024-03-02T02:22:01;0.5;;;0.4;;
81815;SDS011;71249;52.084;5.304;2024-03-02T02:25:14;0.4;;;0.4;;
81815;SDS011;71249;52.084;5.304;2024-03-02T02:26:50;1.11;;;0.4;;
81815;SDS011;71249;52.084;5.304;2024-03-02T02:28:26;0.5;;;0.4;;
81815;SDS011;71249;52.084;5.304;2024-03-02T02:30:02;2.0;;;0.5;;
81815;SDS011;71249;52.084;5.304;2024-03-02T02:33:16;0.5;;;0.3;;
81815;SDS011;71249;52.084;5.304;2024-03-02T02:34:52;3.0;;;0.6;;
81815;SDS011;71249;52.084;5.304;2024-03-02T02:36:28;0.7;;;0.6;;
81815;SDS011;71249;52.084;5.304;2024-03-02T02:39:41;1.0;;;0.5;;
81815;SDS011;71249;52.084;5.304;2024-03-02T02:41:17;1.0;;;0.7;;
81815;SDS011;71249;52.084;5.304;2024-03-02T02:42:53;0.8;;;0.5;;
81815;SDS011;71249;52.084;5.304;2024-03-02T02:46:05;0.6;;;0.6;;
81815;SDS011;71249;52.084;5.304;2024-03-02T02:47:41;2.1;;;0.7;;
81815;SDS011;71249;52.084;5.304;2024-03-02T02:49:18;1.5;;;0.5;;
81815;SDS011;71249;52.084;5.304;2024-03-02T02:50:55;0.4;;;0.3;;
81815;SDS011;71249;52.084;5.304;2024-03-02T02:54:08;0.7;;;0.6;;
81815;SDS011;71249;52.084;5.304;2024-03-02T02:55:44;0.8;;;0.4;;
81815;SDS011;71249;52.084;5.304;2024-03-02T02:57:20;0.7;;;0.5;;
81815;SDS011;71249;52.084;5.304;2024-03-02T03:00:32;0.5;;;0.5;;
81815;SDS011;71249;52.084;5.304;2024-03-02T03:02:08;0.6;;;0.4;;
81815;SDS011;71249;52.084;5.304;2024-03-02T03:03:45;1.11;;;0.4;;
81815;SDS011;71249;52.084;5.304;2024-03-02T03:06:58;2.0;;;0.5;;
81815;SDS011;71249;52.084;5.304;2024-03-02T03:08:34;0.8;;;0.5;;
81815;SDS011;71249;52.084;5.304;2024-03-02T03:10:10;0.9;;;0.5;;
81815;SDS011;71249;52.084;5.304;2024-03-02T03:11:46;0.4;;;0.4;;
81815;SDS011;71249;52.084;5.304;2024-03-02T03:14:58;2.1;;;0.6;;
81815;SDS011;71249;52.084;5.304;2024-03-02T03:16:35;0.9;;;0.5;;
81815;SDS011;71249;52.084;5.304;2024-03-02T03:18:12;0.7;;;0.6;;
81815;SDS011;71249;52.084;5.304;2024-03-02T03:21:24;0.7;;;0.4;;
81815;SDS011;71249;52.084;5.304;2024-03-02T03:23:00;0.7;;;0.4;;
81815;SDS011;71249;52.084;5.304;2024-03-02T03:24:36;1.3;;;0.4;;
81815;SDS011;71249;52.084;5.304;2024-03-02T03:27:48;0.5;;;0.4;;
81815;SDS011;71249;52.084;5.304;2024-03-02T03:29:24;1.3;;;0.4;;
81815;SDS011;71249;52.084;5.304;2024-03-02T03:31:00;0.9;;;0.5;;
81815;SDS011;71249;52.084;5.304;2024-03-02T03:34:13;1.0;;;0.5;;
81815;SDS011;71249;52.084;5.304;2024-03-02T03:35:49;0.8;;;0.3;;
81815;SDS011;71249;52.084;5.304;2024-03-02T03:37:25;0.8;;;0.3;;
81815;SDS011;71249;52.084;5.304;2024-03-02T03:39:04;1.11;;;0.4;;
81815;SDS011;71249;52.084;5.304;2024-03-02T03:42:17;0.9;;;0.4;;
81815;SDS011;71249;52.084;5.304;2024-03-02T03:43:53;0.6;;;0.3;;
81815;SDS011;71249;52.084;5.304;2024-03-02T03:45:30;0.7;;;0.3;;
81815;SDS011;71249;52.084;5.304;2024-03-02T03:48:42;1.11;;;0.5;;
81815;SDS011;71249;52.084;5.304;2024-03-02T03:50:18;1.3;;;0.4;;
81815;SDS011;71249;52.084;5.304;2024-03-02T03:51:54;0.6;;;0.4;;
81815;SDS011;71249;52.084;5.304;2024-03-02T03:55:07;1.2;;;0.5;;
81815;SDS011;71249;52.084;5.304;2024-03-02T03:56:43;1.11;;;0.3;;
81815;SDS011;71249;52.084;5.304;2024-03-02T03:58:19;0.8;;;0.5;;
81815;SDS011;71249;52.084;5.304;2024-03-02T03:59:56;2.4;;;0.5;;
81815;SDS011;71249;52.084;5.304;2024-03-02T04:03:08;0.5;;;0.3;;
81815;SDS011;71249;52.084;5.304;2024-03-02T04:04:44;0.9;;;0.3;;
81815;SDS011;71249;52.084;5.304;2024-03-02T04:06:20;0.8;;;0.4;;
81815;SDS011;71249;52.084;5.304;2024-03-02T04:09:32;0.5;;;0.4;;
81815;SDS011;71249;52.084;5.304;2024-03-02T04:11:08;0.9;;;0.5;;
81815;SDS011;71249;52.084;5.304;2024-03-02T04:12:44;1.2;;;0.3;;
81815;SDS011;71249;52.084;5.304;2024-03-02T04:15:57;0.9;;;0.4;;
81815;SDS011;71249;52.084;5.304;2024-03-02T04:17:33;2.1;;;0.4;;
81815;SDS011;71249;52.084;5.304;2024-03-02T04:19:09;2.1;;;0.4;;
81815;SDS011;71249;52.084;5.304;2024-03-02T04:22:21;0.6;;;0.3;;
81815;SDS011;71249;52.084;5.304;2024-03-02T04:23:57;0.7;;;0.5;;
81815;SDS011;71249;52.084;5.304;2024-03-02T04:25:34;0.4;;;0.4;;
81815;SDS011;71249;52.084;5.304;2024-03-02T04:27:10;0.6;;;0.4;;
81815;SDS011;71249;52.084;5.304;2024-03-02T04:30:22;1.5;;;0.5;;
81815;SDS011;71249;52.084;5.304;2024-03-02T04:31:58;1.2;;;0.5;;
81815;SDS011;71249;52.084;5.304;2024-03-02T04:33:34;0.8;;;0.4;;
81815;SDS011;71249;52.084;5.304;2024-03-02T04:36:46;1.0;;;0.5;;
81815;SDS011;71249;52.084;5.304;2024-03-02T04:38:22;1.6;;;0.5;;
81815;SDS011;71249;52.084;5.304;2024-03-02T04:39:58;1.6;;;0.5;;
81815;SDS011;71249;52.084;5.304;2024-03-02T04:43:11;0.7;;;0.4;;
81815;SDS011;71249;52.084;5.304;2024-03-02T04:44:47;0.9;;;0.4;;
81815;SDS011;71249;52.084;5.304;2024-03-02T04:46:23;1.2;;;0.6;;
81815;SDS011;71249;52.084;5.304;2024-03-02T04:47:59;1.8;;;0.5;;
81815;SDS011;71249;52.084;5.304;2024-03-02T04:51:11;0.8;;;0.4;;
81815;SDS011;71249;52.084;5.304;2024-03-02T04:52:47;1.7;;;0.5;;
81815;SDS011;71249;52.084;5.304;2024-03-02T04:54:23;1.2;;;0.5;;
81815;SDS011;71249;52.084;5.304;2024-03-02T04:57:36;1.3;;;0.5;;
81815;SDS011;71249;52.084;5.304;2024-03-02T04:59:15;0.4;;;0.4;;
81815;SDS011;71249;52.084;5.304;2024-03-02T05:00:51;1.11;;;0.4;;
81815;SDS011;71249;52.084;5.304;2024-03-02T05:04:03;1.4;;;0.5;;
81815;SDS011;71249;52.084;5.304;2024-03-02T05:05:39;1.8;;;0.5;;
81815;SDS011;71249;52.084;5.304;2024-03-02T05:07:15;1.0;;;0.4;;
81815;SDS011;71249;52.084;5.304;2024-03-02T05:10:27;0.7;;;0.4;;
81815;SDS011;71249;52.084;5.304;2024-03-02T05:12:04;2.5;;;0.6;;
81815;SDS011;71249;52.084;5.304;2024-03-02T05:13:41;2.1;;;0.6;;
81815;SDS011;71249;52.084;5.304;2024-03-02T05:15:17;2.1;;;0.6;;
81815;SDS011;71249;52.084;5.304;2024-03-02T05:18:29;1.3;;;0.6;;
81815;SDS011;71249;52.084;5.304;2024-03-02T05:20:06;1.4;;;0.5;;
81815;SDS011;71249;52.084;5.304;2024-03-02T05:21:43;2.31;;;0.5;;
81815;SDS011;71249;52.084;5.304;2024-03-02T05:24:55;1.8;;;0.5;;
81815;SDS011;71249;52.084;5.304;2024-03-02T05:26:32;2.4;;;0.7;;
81815;SDS011;71249;52.084;5.304;2024-03-02T05:28:09;0.8;;;0.4;;
81815;SDS011;71249;52.084;5.304;2024-03-02T05:31:21;0.9;;;0.4;;
81815;SDS011;71249;52.084;5.304;2024-03-02T05:32:57;1.9;;;0.6;;
81815;SDS011;71249;52.084;5.304;2024-03-02T05:34:33;1.7;;;0.4;;
81815;SDS011;71249;52.084;5.304;2024-03-02T05:36:09;0.9;;;0.6;;
81815;SDS011;71249;52.084;5.304;2024-03-02T05:39:21;1.9;;;0.5;;
81815;SDS011;71249;52.084;5.304;2024-03-02T05:40:57;1.4;;;0.4;;
81815;SDS011;71249;52.084;5.304;2024-03-02T05:42:34;1.6;;;0.4;;
81815;SDS011;71249;52.084;5.304;2024-03-02T05:45:46;0.8;;;0.4;;
81815;SDS011;71249;52.084;5.304;2024-03-02T05:47:22;1.5;;;0.5;;
81815;SDS011;71249;52.084;5.304;2024-03-02T05:48:59;1.8;;;0.7;;
81815;SDS011;71249;52.084;5.304;2024-03-02T05:52:11;1.8;;;0.7;;
81815;SDS011;71249;52.084;5.304;2024-03-02T05:53:47;1.4;;;0.8;;
81815;SDS011;71249;52.084;5.304;2024-03-02T05:55:24;2.0;;;0.6;;
81815;SDS011;71249;52.084;5.304;2024-03-02T05:58:36;2.7;;;0.6;;
81815;SDS011;71249;52.084;5.304;2024-03-02T06:00:12;1.3;;;0.5;;
81815;SDS011;71249;52.084;5.304;2024-03-02T06:01:49;0.9;;;0.5;;
81815;SDS011;71249;52.084;5.304;2024-03-02T06:03:25;2.9;;;0.5;;
81815;SDS011;71249;52.084;5.304;2024-03-02T06:06:37;1.5;;;0.5;;
81815;SDS011;71249;52.084;5.304;2024-03-02T06:08:13;2.0;;;0.7;;
81815;SDS011;71249;52.084;5.304;2024-03-02T06:09:49;2.1;;;0.5;;
81815;SDS011;71249;52.084;5.304;2024-03-02T06:14:38;1.11;;;0.5;;
81815;SDS011;71249;52.084;5.304;2024-03-02T06:16:14;1.0;;;0.5;;
81815;SDS011;71249;52.084;5.304;2024-03-02T06:19:26;1.8;;;0.5;;
81815;SDS011;71249;52.084;5.304;2024-03-02T06:21:02;1.8;;;0.4;;
81815;SDS011;71249;52.084;5.304;2024-03-02T06:22:39;2.21;;;0.7;;
81815;SDS011;71249;52.084;5.304;2024-03-02T06:24:15;2.4;;;0.6;;
81815;SDS011;71249;52.084;5.304;2024-03-02T06:27:27;2.31;;;0.6;;
81815;SDS011;71249;52.084;5.304;2024-03-02T06:29:04;1.7;;;0.5;;
81815;SDS011;71249;52.084;5.304;2024-03-02T06:30:40;2.0;;;0.4;;
81815;SDS011;71249;52.084;5.304;2024-03-02T06:33:52;1.5;;;0.6;;
81815;SDS011;71249;52.084;5.304;2024-03-02T06:35:28;1.7;;;0.7;;
81815;SDS011;71249;52.084;5.304;2024-03-02T06:37:04;1.4;;;0.4;;
81815;SDS011;71249;52.084;5.304;2024-03-02T06:40:16;1.7;;;0.5;;
81815;SDS011;71249;52.084;5.304;2024-03-02T06:41:52;1.8;;;0.6;;
81815;SDS011;71249;52.084;5.304;2024-03-02T06:43:29;1.3;;;0.6;;
81815;SDS011;71249;52.084;5.304;2024-03-02T06:46:42;1.4;;;0.8;;
81815;SDS011;71249;52.084;5.304;2024-03-02T06:48:18;1.8;;;0.8;;
81815;SDS011;71249;52.084;5.304;2024-03-02T06:49:55;2.7;;;0.5;;
81815;SDS011;71249;52.084;5.304;2024-03-02T06:51:31;1.6;;;0.6;;
81815;SDS011;71249;52.084;5.304;2024-03-02T06:54:45;2.9;;;0.6;;
81815;SDS011;71249;52.084;5.304;2024-03-02T06:56:21;1.9;;;0.6;;
81815;SDS011;71249;52.084;5.304;2024-03-02T06:57:58;1.0;;;0.5;;
81815;SDS011;71249;52.084;5.304;2024-03-02T07:01:10;1.8;;;0.6;;
81815;SDS011;71249;52.084;5.304;2024-03-02T07:02:46;1.8;;;0.7;;
81815;SDS011;71249;52.084;5.304;2024-03-02T07:04:22;3.2;;;0.9;;
81815;SDS011;71249;52.084;5.304;2024-03-02T07:07:34;1.8;;;0.6;;
81815;SDS011;71249;52.084;5.304;2024-03-02T07:09:11;1.3;;;0.6;;
81815;SDS011;71249;52.084;5.304;2024-03-02T07:10:46;2.1;;;0.6;;
81815;SDS011;71249;52.084;5.304;2024-03-02T07:12:23;2.21;;;0.6;;
81815;SDS011;71249;52.084;5.304;2024-03-02T07:15:38;1.7;;;0.6;;
81815;SDS011;71249;52.084;5.304;2024-03-02T07:17:14;2.6;;;0.8;;
81815;SDS011;71249;52.084;5.304;2024-03-02T07:18:50;2.21;;;0.8;;
81815;SDS011;71249;52.084;5.304;2024-03-02T07:22:05;1.7;;;0.6;;
81815;SDS011;71249;52.084;5.304;2024-03-02T07:23:42;2.8;;;0.7;;
81815;SDS011;71249;52.084;5.304;2024-03-02T07:25:18;2.8;;;0.5;;
81815;SDS011;71249;52.084;5.304;2024-03-02T07:28:31;2.4;;;0.8;;
81815;SDS011;71249;52.084;5.304;2024-03-02T07:30:07;2.21;;;0.9;;
81815;SDS011;71249;52.084;5.304;2024-03-02T07:31:44;1.8;;;0.7;;
81815;SDS011;71249;52.084;5.304;2024-03-02T07:33:20;2.0;;;0.6;;
81815;SDS011;71249;52.084;5.304;2024-03-02T07:36:32;1.2;;;0.8;;
81815;SDS011;71249;52.084;5.304;2024-03-02T07:38:08;2.5;;;0.7;;
81815;SDS011;71249;52.084;5.304;2024-03-02T07:39:44;2.31;;;0.7;;
81815;SDS011;71249;52.084;5.304;2024-03-02T07:42:57;2.31;;;0.7;;
81815;SDS011;71249;52.084;5.304;2024-03-02T07:44:33;2.7;;;0.8;;
81815;SDS011;71249;52.084;5.304;2024-03-02T07:46:09;3.9;;;0.7;;
81815;SDS011;71249;52.084;5.304;2024-03-02T07:49:25;2.31;;;0.7;;
81815;SDS011;71249;52.084;5.304;2024-03-02T07:51:01;2.9;;;0.8;;
81815;SDS011;71249;52.084;5.304;2024-03-02T07:52:37;3.6;;;0.9;;
81815;SDS011;71249;52.084;5.304;2024-03-02T07:54:13;1.3;;;0.6;;
81815;SDS011;71249;52.084;5.304;2024-03-02T07:57:25;2.6;;;0.8;;
81815;SDS011;71249;52.084;5.304;2024-03-02T07:59:01;2.5;;;0.6;;
81815;SDS011;71249;52.084;5.304;2024-03-02T08:00:38;2.1;;;0.8;;
81815;SDS011;71249;52.084;5.304;2024-03-02T08:03:51;1.3;;;0.6;;
81815;SDS011;71249;52.084;5.304;2024-03-02T08:05:27;1.8;;;1.11;;
81815;SDS011;71249;52.084;5.304;2024-03-02T08:07:03;3.1;;;0.6;;
81815;SDS011;71249;52.084;5.304;2024-03-02T08:10:16;2.0;;;0.7;;
81815;SDS011;71249;52.084;5.304;2024-03-02T08:11:52;2.0;;;0.8;;
81815;SDS011;71249;52.084;5.304;2024-03-02T08:13:28;3.0;;;0.7;;
81815;SDS011;71249;52.084;5.304;2024-03-02T08:15:05;2.31;;;0.7;;
81815;SDS011;71249;52.084;5.304;2024-03-02T08:18:18;3.4;;;0.7;;
81815;SDS011;71249;52.084;5.304;2024-03-02T08:19:54;1.8;;;0.5;;
81815;SDS011;71249;52.084;5.304;2024-03-02T08:21:33;2.21;;;0.6;;
81815;SDS011;71249;52.084;5.304;2024-03-02T08:24:45;1.8;;;0.6;;
81815;SDS011;71249;52.084;5.304;2024-03-02T08:26:21;2.4;;;0.6;;
81815;SDS011;71249;52.084;5.304;2024-03-02T08:27:57;3.6;;;0.8;;
81815;SDS011;71249;52.084;5.304;2024-03-02T08:31:09;2.1;;;0.7;;
81815;SDS011;71249;52.084;5.304;2024-03-02T08:32:49;1.3;;;0.5;;
81815;SDS011;71249;52.084;5.304;2024-03-02T08:34:25;1.7;;;0.7;;
81815;SDS011;71249;52.084;5.304;2024-03-02T08:36:01;3.5;;;0.7;;
81815;SDS011;71249;52.084;5.304;2024-03-02T08:39:17;2.31;;;0.7;;
81815;SDS011;71249;52.084;5.304;2024-03-02T08:40:53;2.8;;;0.7;;
81815;SDS011;71249;52.084;5.304;2024-03-02T08:42:29;3.1;;;0.7;;
81815;SDS011;71249;52.084;5.304;2024-03-02T08:45:41;3.7;;;0.8;;
81815;SDS011;71249;52.084;5.304;2024-03-02T08:47:18;1.6;;;0.7;;
81815;SDS011;71249;52.084;5.304;2024-03-02T08:48:55;2.8;;;0.8;;
81815;SDS011;71249;52.084;5.304;2024-03-02T08:52:07;2.6;;;0.9;;
81815;SDS011;71249;52.084;5.304;2024-03-02T08:53:43;1.5;;;0.8;;
81815;SDS011;71249;52.084;5.304;2024-03-02T08:55:19;2.5;;;1.11;;
81815;SDS011;71249;52.084;5.304;2024-03-02T08:56:55;2.31;;;0.9;;
81815;SDS011;71249;52.084;5.304;2024-03-02T09:00:07;2.5;;;0.9;;
81815;SDS011;71249;52.084;5.304;2024-03-02T09:01:44;2.21;;;0.8;;
81815;SDS011;71249;52.084;5.304;2024-03-02T09:03:20;3.0;;;1.0;;
81815;SDS011;71249;52.084;5.304;2024-03-02T09:06:33;2.8;;;0.9;;
81815;SDS011;71249;52.084;5.304;2024-03-02T09:08:09;4.41;;;1.3;;
81815;SDS011;71249;52.084;5.304;2024-03-02T09:09:45;3.9;;;1.11;;
81815;SDS011;71249;52.084;5.304;2024-03-02T09:12:57;3.2;;;0.7;;
81815;SDS011;71249;52.084;5.304;2024-03-02T09:14:35;5.9;;;0.9;;
81815;SDS011;71249;52.084;5.304;2024-03-02T09:16:12;2.8;;;0.8;;
81815;SDS011;71249;52.084;5.304;2024-03-02T09:19:23;3.7;;;1.0;;
81815;SDS011;71249;52.084;5.304;2024-03-02T09:21:00;2.5;;;1.11;;
81815;SDS011;71249;52.084;5.304;2024-03-02T09:22:36;2.4;;;1.0;;
81815;SDS011;71249;52.084;5.304;2024-03-02T09:24:12;3.5;;;0.9;;
81815;SDS011;71249;52.084;5.304;2024-03-02T09:27:24;4.1;;;1.3;;
81815;SDS011;71249;52.084;5.304;2024-03-02T09:29:00;4.5;;;1.11;;
81815;SDS011;71249;52.084;5.304;2024-03-02T09:30:36;4.8;;;1.11;;
81815;SDS011;71249;52.084;5.304;2024-03-02T09:33:50;4.41;;;1.4;;
81815;SDS011;71249;52.084;5.304;2024-03-02T09:35:26;3.0;;;1.0;;
81815;SDS011;71249;52.084;5.304;2024-03-02T09:37:02;4.41;;;1.0;;
81815;SDS011;71249;52.084;5.304;2024-03-02T09:40:14;3.6;;;1.2;;
81815;SDS011;71249;52.084;5.304;2024-03-02T09:41:50;2.9;;;1.0;;
81815;SDS011;71249;52.084;5.304;2024-03-02T09:43:26;3.5;;;1.11;;
81815;SDS011;71249;52.084;5.304;2024-03-02T09:45:02;4.2;;;1.11;;
81815;SDS011;71249;52.084;5.304;2024-03-02T09:48:15;5.11;;;1.4;;
81815;SDS011;71249;52.084;5.304;2024-03-02T09:49:51;6.3;;;1.2;;
81815;SDS011;71249;52.084;5.304;2024-03-02T09:51:27;4.3;;;1.3;;
81815;SDS011;71249;52.084;5.304;2024-03-02T09:54:41;3.1;;;0.9;;
81815;SDS011;71249;52.084;5.304;2024-03-02T09:56:17;3.5;;;1.11;;
81815;SDS011;71249;52.084;5.304;2024-03-02T09:57:53;3.4;;;1.4;;
81815;SDS011;71249;52.084;5.304;2024-03-02T10:01:05;3.1;;;1.11;;
81815;SDS011;71249;52.084;5.304;2024-03-02T10:02:41;4.2;;;1.2;;
81815;SDS011;71249;52.084;5.304;2024-03-02T10:04:17;4.2;;;1.2;;
81815;SDS011;71249;52.084;5.304;2024-03-02T10:07:30;4.5;;;1.11;;
81815;SDS011;71249;52.084;5.304;2024-03-02T10:09:06;6.6;;;1.3;;
81815;SDS011;71249;52.084;5.304;2024-03-02T10:10:42;3.8;;;1.3;;
81815;SDS011;71249;52.084;5.304;2024-03-02T10:12:18;3.7;;;1.3;;
81815;SDS011;71249;52.084;5.304;2024-03-02T10:15:44;3.9;;;1.11;;
81815;SDS011;71249;52.084;5.304;2024-03-02T10:17:20;5.0;;;1.4;;
81815;SDS011;71249;52.084;5.304;2024-03-02T10:18:56;4.0;;;1.6;;
81815;SDS011;71249;52.084;5.304;2024-03-02T10:22:09;4.2;;;1.3;;
81815;SDS011;71249;52.084;5.304;2024-03-02T10:23:46;4.7;;;1.4;;
81815;SDS011;71249;52.084;5.304;2024-03-02T10:25:29;4.41;;;1.11;;
81815;SDS011;71249;52.084;5.304;2024-03-02T10:27:07;3.6;;;1.2;;
81815;SDS011;71249;52.084;5.304;2024-03-02T10:30:23;5.8;;;1.5;;
81815;SDS011;71249;52.084;5.304;2024-03-02T10:32:01;5.5;;;1.4;;
81815;SDS011;71249;52.084;5.304;2024-03-02T10:33:38;3.3;;;1.11;;
81815;SDS011;71249;52.084;5.304;2024-03-02T10:35:15;3.0;;;1.11;;
81815;SDS011;71249;52.084;5.304;2024-03-02T10:38:30;4.5;;;0.9;;
81815;SDS011;71249;52.084;5.304;2024-03-02T10:40:07;4.3;;;1.5;;
81815;SDS011;71249;52.084;5.304;2024-03-02T10:41:46;4.2;;;1.5;;
81815;SDS011;71249;52.084;5.304;2024-03-02T10:45:04;4.3;;;1.3;;
81815;SDS011;71249;52.084;5.304;2024-03-02T10:46:43;3.7;;;1.11;;
81815;SDS011;71249;52.084;5.304;2024-03-02T10:48:24;3.0;;;1.2;;
81815;SDS011;71249;52.084;5.304;2024-03-02T10:50:02;4.0;;;1.2;;
81815;SDS011;71249;52.084;5.304;2024-03-02T10:53:18;3.2;;;1.5;;
81815;SDS011;71249;52.084;5.304;2024-03-02T10:54:53;3.2;;;1.5;;
81815;SDS011;71249;52.084;5.304;2024-03-02T10:56:30;4.5;;;1.2;;
81815;SDS011;71249;52.084;5.304;2024-03-02T10:59:51;5.8;;;1.11;;
81815;SDS011;71249;52.084;5.304;2024-03-02T11:01:32;4.0;;;1.0;;
81815;SDS011;71249;52.084;5.304;2024-03-02T11:03:10;3.9;;;1.0;;
81815;SDS011;71249;52.084;5.304;2024-03-02T11:04:48;4.0;;;1.2;;
81815;SDS011;71249;52.084;5.304;2024-03-02T11:08:06;4.7;;;1.3;;
81815;SDS011;71249;52.084;5.304;2024-03-02T11:09:45;4.7;;;1.3;;
81815;SDS011;71249;52.084;5.304;2024-03-02T11:11:30;4.0;;;1.11;;
81815;SDS011;71249;52.084;5.304;2024-03-02T11:13:12;4.91;;;1.3;;
81815;SDS011;71249;52.084;5.304;2024-03-02T11:16:30;4.5;;;1.3;;
81815;SDS011;71249;52.084;5.304;2024-03-02T11:18:09;3.5;;;1.0;;
81815;SDS011;71249;52.084;5.304;2024-03-02T11:19:46;2.6;;;1.11;;
81815;SDS011;71249;52.084;5.304;2024-03-02T11:21:24;3.4;;;1.3;;
81815;SDS011;71249;52.084;5.304;2024-03-02T11:24:47;2.31;;;0.7;;
81815;SDS011;71249;52.084;5.304;2024-03-02T11:26:25;3.3;;;1.0;;
81815;SDS011;71249;52.084;5.304;2024-03-02T11:28:02;3.4;;;0.9;;
81815;SDS011;71249;52.084;5.304;2024-03-02T11:29:43;2.9;;;0.9;;
81815;SDS011;71249;52.084;5.304;2024-03-02T11:32:58;3.4;;;1.5;;
81815;SDS011;71249;52.084;5.304;2024-03-02T11:34:35;2.9;;;1.11;;
81815;SDS011;71249;52.084;5.304;2024-03-02T11:36:12;3.3;;;1.11;;
81815;SDS011;71249;52.084;5.304;2024-03-02T11:39:27;3.6;;;1.11;;
81815;SDS011;71249;52.084;5.304;2024-03-02T11:41:06;3.0;;;0.7;;
81815;SDS011;71249;52.084;5.304;2024-03-02T11:42:43;5.11;;;0.8;;
81815;SDS011;71249;52.084;5.304;2024-03-02T11:44:20;5.0;;;1.3;;
81815;SDS011;71249;52.084;5.304;2024-03-02T11:47:34;3.3;;;0.9;;
81815;SDS011;71249;52.084;5.304;2024-03-02T11:49:13;3.5;;;1.3;;
81815;SDS011;71249;52.084;5.304;2024-03-02T11:50:50;3.1;;;0.9;;
81815;SDS011;71249;52.084;5.304;2024-03-02T11:54:03;3.7;;;1.11;;
81815;SDS011;71249;52.084;5.304;2024-03-02T11:55:42;4.1;;;1.0;;
81815;SDS011;71249;52.084;5.304;2024-03-02T11:57:19;2.5;;;0.9;;
81815;SDS011;71249;52.084;5.304;2024-03-02T11:58:58;2.5;;;0.9;;
81815;SDS011;71249;52.084;5.304;2024-03-02T12:02:14;3.9;;;1.11;;
81815;SDS011;71249;52.084;5.304;2024-03-02T12:03:51;4.2;;;1.0;;
81815;SDS011;71249;52.084;5.304;2024-03-02T12:05:27;3.1;;;1.0;;
81815;SDS011;71249;52.084;5.304;2024-03-02T12:08:41;3.5;;;1.0;;
81815;SDS011;71249;52.084;5.304;2024-03-02T12:10:17;3.3;;;0.7;;
81815;SDS011;71249;52.084;5.304;2024-03-02T12:12:01;2.5;;;0.9;;
81815;SDS011;71249;52.084;5.304;2024-03-02T12:13:38;2.6;;;0.8;;
81815;SDS011;71249;52.084;5.304;2024-03-02T12:16:51;4.7;;;1.11;;
81815;SDS011;71249;52.084;5.304;2024-03-02T12:18:27;4.7;;;1.11;;
81815;SDS011;71249;52.084;5.304;2024-03-02T12:20:04;1.4;;;0.8;;
81815;SDS011;71249;52.084;5.304;2024-03-02T12:23:16;3.5;;;0.9;;
81815;SDS011;71249;52.084;5.304;2024-03-02T12:24:53;4.91;;;1.6;;
81815;SDS011;71249;52.084;5.304;2024-03-02T12:26:29;2.21;;;0.9;;
81815;SDS011;71249;52.084;5.304;2024-03-02T12:29:42;3.4;;;1.0;;
81815;SDS011;71249;52.084;5.304;2024-03-02T12:31:20;2.6;;;1.0;;
81815;SDS011;71249;52.084;5.304;2024-03-02T12:32:56;2.6;;;1.11;;
81815;SDS011;71249;52.084;5.304;2024-03-02T12:34:32;3.8;;;1.11;;
81815;SDS011;71249;52.084;5.304;2024-03-02T12:37:46;3.0;;;1.11;;
81815;SDS011;71249;52.084;5.304;2024-03-02T12:39:23;2.9;;;1.0;;
81815;SDS011;71249;52.084;5.304;2024-03-02T12:40:59;3.8;;;1.11;;
81815;SDS011;71249;52.084;5.304;2024-03-02T12:44:11;2.9;;;0.8;;
81815;SDS011;71249;52.084;5.304;2024-03-02T12:45:47;3.6;;;1.11;;
81815;SDS011;71249;52.084;5.304;2024-03-02T12:47:24;3.5;;;1.11;;
81815;SDS011;71249;52.084;5.304;2024-03-02T12:50:44;2.6;;;0.8;;
81815;SDS011;71249;52.084;5.304;2024-03-02T12:52:20;2.9;;;0.9;;
81815;SDS011;71249;52.084;5.304;2024-03-02T12:53:56;3.6;;;1.4;;
81815;SDS011;71249;52.084;5.304;2024-03-02T12:55:33;2.5;;;1.0;;
81815;SDS011;71249;52.084;5.304;2024-03-02T12:58:45;3.2;;;1.2;;